Terminal Aerodrome Forecast
Issued by NWS Des Moines, IA

Home | Current Version | Previous Version | Text Only | Print | Product List | Glossary On
Versions: 1 2 3 4 5 6 7 8 9 10 11 12 13 14 15 16 17 18 19 20 21 22 23 24 25 26 27 28 29 30 31 32 33 34 35 36 37 38 39 40 41 42 43 44
000
FTUS43 KDMX 182331
TAFALO
TAF
KALO 182331Z 1900/1924 15014G25KT P6SM SKC
     FM190300 16009KT P6SM BKN090
     FM190800 13006KT P6SM OVC015
     FM191100 07008KT 2SM -RA OVC006
     FM191700 01009KT 4SM -DZRA OVC006=

USA.gov is the U.S. government's official web portal to all federal, state and local government web resources and services.